Condiciones actuales en los principales Aeropuertos de España-Datos Metar

 

LEAL - Alicante
Actualización: 19/10/2017 23:30
Despejado
Despejado
 Viento del O
Viento: O 17 km/h
Temperatura: 18°C
Rocío: 8°C
Humedad: 52%
Barómetro: 1013 hPa
Resumen: Despejado
Visibilidad: greater than 10 km
2017/10/19 21:30 LEAL 192130Z 27009KT CAVOK 18/08 Q1013 NOSIG
LEAB - Albacete
Actualización: 19/10/2017 23:00
Despejado
Despejado
 Viento del O
Viento: O 11 km/h
Temperatura: 10°C
Wind Chill: 8°C
Rocío: 6°C
Humedad: 76%
Barómetro: 1017 hPa
Resumen: Despejado
Visibilidad: greater than 10 km
2017/10/19 21:00 LEAB 192100Z 28006KT CAVOK 10/06 Q1017 NOSIG
LEAM - Almería
Actualización: 19/10/2017 23:30
Despejado
Despejado
 Viento del NNO
Viento: NNO 26 km/h
Temperatura: 21°C
Rocío: 8°C
Humedad: 43%
Barómetro: 1014 hPa
Nubosidad: Despejado
Visibilidad: 10 km
2017/10/19 21:30 LEAM 192130Z AUTO 34014KT 9999 NCD 21/08 Q1014
 
LEAS - Asturias/Aviles
Actualización: 19/10/2017 23:30
Mostly Cloudy
Mostly Cloudy
 Viento del ONO
Viento: ONO 20 km/h
Temperatura: 17°C
Rocío: 15°C
Humedad: 88%
Barómetro: 1013 hPa
Nubosidad: Mostly Cloudy
Visibilidad: 8 km
Cloud details: Few Clouds 305 m
Mostly Cloudy 1158 m
2017/10/19 21:30 LEAS 192130Z 30011KT 260V340 8000 FEW010 BKN038 17/15 Q1013 NOSIG
LEBZ - Badajoz/Talavera la Real
Actualización: 19/10/2017 21:00
NO Actualizado
Few Clouds
Few Clouds
 Viento del O
Viento: O 9 km/h
Temperatura: 18°C
Rocío: 14°C
Humedad: 78%
Barómetro: 1017 hPa
Nubosidad: Few Clouds
Visibilidad: 10 km
Cloud details: Few Clouds 1219 m
2017/10/19 19:00 LEBZ 191900Z 27005KT 9999 FEW040 18/14 Q1017
LEBL - Barcelona
Actualización: 19/10/2017 23:30
Partly Cloudy
Partly Cloudy
 Viento del N
Viento: N 6 km/h
Temperatura: 17°C
Rocío: 16°C
Humedad: 94%
Barómetro: 1011 hPa
Nubosidad: Partly Cloudy
Visibilidad: 10 km
Cloud details: Few Clouds 610 m
Partly Cloudy 1219 m
2017/10/19 21:30 LEBL 192130Z 36003KT 9999 FEW020 SCT040 17/16 Q1011 NOSIG
 
LEBB - Bilbao
Actualización: 19/10/2017 23:30
Partly Cloudy
Partly Cloudy
 Viento del varies
Viento: varies 2 km/h
Temperatura: 18°C
Rocío: 10°C
Humedad: 60%
Barómetro: 1013 hPa
Nubosidad: Partly Cloudy
Visibilidad: 10 km
Cloud details: Partly Cloudy 1829 m
2017/10/19 21:30 LEBB 192130Z VRB01KT 9999 SCT060 18/10 Q1013 NOSIG
LEBG - Burgos/Villafría
Actualización: 19/10/2017 23:30
Cubierto
Cubierto
 Viento del SO
Viento: SO 17 km/h
Temperatura: 11°C
Rocío: 7°C
Humedad: 77%
Barómetro: 1017 hPa
Nubosidad: Cubierto
Visibilidad: 10 km
Cloud details: Cubierto 792 m
2017/10/19 21:30 LEBG 192130Z AUTO 22009KT 9999 OVC026/// 11/07 Q1017
LEBA - Córdoba
Actualización: 19/10/2017 23:30
Despejado
Despejado
 Viento del calm
Viento: Calma
Temperatura: 16°C
Rocío: 13°C
Humedad: 83%
Barómetro: 1018 hPa
Nubosidad: Despejado
Visibilidad: 10 km
2017/10/19 21:30 LEBA 192130Z AUTO 00000KT 9999 NCD 16/13 Q1018
 
LEGE - Gerona
Actualización: 19/10/2017 23:30
Mostly Cloudy
Mostly Cloudy
 Viento del NNE
Viento: NNE 9 km/h
Temperatura: 16°C
Rocío: 16°C
Humedad: 100%
Barómetro: 1012 hPa
Nubosidad: Mostly Cloudy
Visibilidad: 10 km
Cloud details: Partly Cloudy 1219 m
Mostly Cloudy 1829 m
2017/10/19 21:30 LEGE 192130Z 03005KT 9999 SCT040 BKN060 16/16 Q1012
LEGR - Granada
Actualización: 19/10/2017 23:30
Few Clouds
Few Clouds
 Viento del calm
Viento: Calma
Temperatura: 13°C
Rocío: 11°C
Humedad: 88%
Barómetro: 1019 hPa
Nubosidad: Few Clouds
Visibilidad: 10 km
Cloud details: Few Clouds 1676 m
2017/10/19 21:30 LEGR 192130Z 00000KT 9999 FEW055 13/11 Q1019
GCHI - Hierro
Actualización: 19/10/2017 23:30
Despejado
Despejado
 Viento del N
Viento: N 20 km/h
Temperatura: 23°C
Rocío: 19°C
Humedad: 78%
Barómetro: 1022 hPa
Nubosidad: Despejado
Visibilidad: 10 km
2017/10/19 21:30 GCHI 192130Z AUTO 01011KT 340V040 9999 NCD 23/19 Q1022
 
LEIB - Ibiza
Actualización: 19/10/2017 23:30
Few Clouds
Few Clouds
 Viento del calm
Viento: Calma
Temperatura: 15°C
Rocío: 13°C
Humedad: 88%
Barómetro: 1012 hPa
Nubosidad: Few Clouds
Visibilidad: 10 km
Cloud details: Few Clouds 853 m
2017/10/19 21:30 LEIB 192130Z 00000KT 9999 FEW028 15/13 Q1012 NOSIG
LEJR - Jerez de la Frontera
Actualización: 19/10/2017 23:30
Despejado
Despejado
 Viento del OSO
Viento: OSO 11 km/h
Temperatura: 20°C
Rocío: 18°C
Humedad: 88%
Barómetro: 1019 hPa
Resumen: Despejado
Visibilidad: greater than 10 km
2017/10/19 21:30 LEJR 192130Z AUTO 24006KT CAVOK 20/18 Q1019
LECO - A Coruña
Actualización: 19/10/2017 23:30
Lluvia débil, Muy nuboso
Lluvia débil, Muy nuboso
 Viento del varies
Viento: varies 4 km/h
Temperatura: 15°C
Rocío: 15°C
Humedad: 100%
Barómetro: 1014 hPa
Resumen: Light Rain
Nubosidad: Mostly Cloudy
Visibilidad: 7 km
Cloud details: Partly Cloudy 366 m
Mostly Cloudy 762 m
2017/10/19 21:30 LECO 192130Z VRB02KT 7000 -RA SCT012 BKN025 15/15 Q1014 TEMPO 3000 -RA
 
GCLA - La Palma
Actualización: 19/10/2017 23:30
Cubierto
Cubierto
 Viento del N
Viento: N 19 km/h
Temperatura: 23°C
Rocío: 19°C
Humedad: 78%
Barómetro: 1022 hPa
Nubosidad: Cubierto
Visibilidad: 10 km
Cloud details: Few Clouds 518 m
Cubierto 1524 m
2017/10/19 21:30 GCLA 192130Z AUTO 36010KT 320V020 9999 FEW017/// OVC050/// 23/19 Q1022
GCRR - Lanzarote
Actualización: 19/10/2017 23:30
Few Clouds
Few Clouds
 Viento del N
Viento: N 17 km/h
Temperatura: 22°C
Rocío: 20°C
Humedad: 88%
Barómetro: 1021 hPa
Nubosidad: Few Clouds
Visibilidad: 10 km
Cloud details: Few Clouds 762 m
2017/10/19 21:30 GCRR 192130Z 36009KT 9999 FEW025 22/20 Q1021
GCLP - Las Palmas
Actualización: 19/10/2017 23:30
Few Clouds
Few Clouds
 Viento del N
Viento: N 22 km/h
Temperatura: 23°C
Rocío: 18°C
Humedad: 74%
Barómetro: 1021 hPa
Nubosidad: Few Clouds
Visibilidad: 10 km
Cloud details: Few Clouds 610 m
2017/10/19 21:30 GCLP 192130Z 01012KT 9999 FEW020 23/18 Q1021 NOSIG
 
LELN - León
Actualización: 19/10/2017 21:00
NO Actualizado
Mostly Cloudy
Mostly Cloudy
 Viento del SO
Viento: SO 7 km/h
Temperatura: 12°C
Rocío: 9°C
Humedad: 82%
Barómetro: 1015 hPa
Nubosidad: Mostly Cloudy
Visibilidad: 10 km
Cloud details: Partly Cloudy 732 m
Mostly Cloudy 1036 m
2017/10/19 19:00 LELN 191900Z 22004KT 190V250 9999 SCT024 BKN034 12/09 Q1015
LELO - Logroño
Actualización: 19/10/2017 23:00
Despejado
Despejado
 Viento del calm
Viento: Calma
Temperatura: 12°C
Rocío: 9°C
Humedad: 82%
Barómetro: 1014 hPa
Resumen: Despejado
Visibilidad: greater than 10 km
2017/10/19 21:00 LELO 192100Z 00000KT CAVOK 12/09 Q1014
LECV - Madrid/Colmenar
Actualización: 19/10/2017 20:00
NO Actualizado
Few Clouds
Few Clouds
 Viento del varies
Viento: varies 2 km/h
Temperatura: 12°C
Rocío: 7°C
Humedad: 72%
Barómetro: 1015 hPa
Nubosidad: Few Clouds
Visibilidad: 10 km
Cloud details: Few Clouds 914 m
2017/10/19 18:00 LECV 191800Z VRB01KT 9999 FEW030 12/07 Q1015
 
LEMD - Madrid/Barajas
Actualización: 19/10/2017 23:30
Few Clouds
Few Clouds
 Viento del O
Viento: O 6 km/h
Temperatura: 15°C
Rocío: 7°C
Humedad: 59%
Barómetro: 1016 hPa
Nubosidad: Few Clouds
Visibilidad: 10 km
Cloud details: Few Clouds 1829 m
2017/10/19 21:30 LEMD 192130Z 27003KT 220V320 9999 FEW060 15/07 Q1016 NOSIG
LEVS - Madrid/Cuatro Vientos
Actualización: 19/10/2017 22:00
NO Actualizado
Despejado
Despejado
 Viento del O
Viento: O 11 km/h
Temperatura: 14°C
Rocío: 9°C
Humedad: 72%
Barómetro: 1016 hPa
Resumen: Despejado
Visibilidad: greater than 10 km
2017/10/19 20:00 LEVS 192000Z 26006KT CAVOK 14/09 Q1016
LEGT - Madrid/Getafe
Actualización: 19/10/2017 20:00
NO Actualizado
Despejado
Despejado
 Viento del NNO
Viento: NNO 13 km/h
Temperatura: 14°C
Rocío: 8°C
Humedad: 67%
Barómetro: 1014 hPa
Resumen: Despejado
Visibilidad: greater than 10 km
2017/10/19 18:00 LEGT 191800Z 34007KT CAVOK 14/08 Q1014
 
LETO - Madrid/Torrejón
Actualización: 19/10/2017 23:00
Partly Cloudy
Partly Cloudy
 Viento del calm
Viento: Calma
Temperatura: 13°C
Rocío: 11°C
Humedad: 88%
Barómetro: 1016 hPa
Nubosidad: Partly Cloudy
Visibilidad: 10 km
Cloud details: Few Clouds 1524 m
Partly Cloudy 1981 m
2017/10/19 21:00 LETO 192100Z 00000KT 9999 FEW050 SCT065 13/11 Q1016 NOSIG
LEMG - Málaga
Actualización: 19/10/2017 23:30
Few Clouds
Few Clouds
 Viento del O
Viento: O 11 km/h
Temperatura: 19°C
Rocío: 13°C
Humedad: 68%
Barómetro: 1018 hPa
Nubosidad: Few Clouds
Visibilidad: 10 km
Cloud details: Few Clouds 1219 m
2017/10/19 21:30 LEMG 192130Z 28006KT 9999 FEW040 19/13 Q1018 NOSIG
GEML - Melilla
Actualización: 19/10/2017 23:30
Despejado
Despejado
 Viento del O
Viento: O 28 km/h, Racha: 54 km/h
Temperatura: 21°C
Rocío: 17°C
Humedad: 78%
Barómetro: 1017 hPa
Resumen: Despejado
Visibilidad: greater than 10 km
2017/10/19 21:30 GEML 192130Z 27015G29KT 240V310 CAVOK 21/17 Q1017
 
LEMH - Mahón
Actualización: 19/10/2017 23:30
Few Clouds
Few Clouds
 Viento del E
Viento: E 4 km/h
Temperatura: 16°C
Rocío: 14°C
Humedad: 88%
Barómetro: 1012 hPa
Nubosidad: Few Clouds
Visibilidad: 10 km
Cloud details: Few Clouds 762 m
2017/10/19 21:30 LEMH 192130Z 08002KT 9999 FEW025 16/14 Q1012
LEMO - Morón de La Frontera
Actualización: 19/10/2017 23:00
Despejado
Despejado
 Viento del SO
Viento: SO 9 km/h
Temperatura: 18°C
Rocío: 16°C
Humedad: 88%
Barómetro: 1018 hPa
Resumen: Despejado
Visibilidad: greater than 10 km
2017/10/19 21:00 LEMO 192100Z 23005KT CAVOK 18/16 Q1018 NOSIG
LERI - Murcia/Alcantarilla
Actualización: 19/10/2017 20:00
NO Actualizado
Few Clouds
Few Clouds
 Viento del varies
Viento: varies 4 km/h
Temperatura: 20°C
Rocío: 7°C
Humedad: 43%
Barómetro: 1012 hPa
Nubosidad: Few Clouds
Visibilidad: 10 km
Cloud details: Few Clouds 1829 m
2017/10/19 18:00 LERI 191800Z VRB02KT 9999 FEW060 20/07 Q1012 NOSIG
 
LELC - Murcia/San Javier
Actualización: 19/10/2017 23:00
Despejado
Despejado
 Viento del O
Viento: O 6 km/h
Temperatura: 18°C
Rocío: 11°C
Humedad: 64%
Barómetro: 1014 hPa
Resumen: Despejado
Visibilidad: greater than 10 km
2017/10/19 21:00 LELC 192100Z 26003KT CAVOK 18/11 Q1014 NOSIG
LEPA - Palma de Mallorca
Actualización: 19/10/2017 23:30
Few Clouds
Few Clouds
 Viento del varies
Viento: varies 2 km/h
Temperatura: 12°C
Rocío: 12°C
Humedad: 100%
Barómetro: 1012 hPa
Nubosidad: Few Clouds
Visibilidad: 10 km
Cloud details: Few Clouds 671 m
2017/10/19 21:30 LEPA 192130Z VRB01KT 9999 FEW022 12/12 Q1012 NOSIG
LEPP - Pamplona
Actualización: 19/10/2017 23:30
Few Clouds
Few Clouds
 Viento del calm
Viento: Calma
Temperatura: 11°C
Rocío: 9°C
Humedad: 88%
Barómetro: 1015 hPa
Nubosidad: Few Clouds
Visibilidad: 10 km
Cloud details: Few Clouds 914 m
2017/10/19 21:30 LEPP 192130Z 00000KT 9999 FEW030 11/09 Q1015
 
LERS - Reus
Actualización: 19/10/2017 23:30
Few Clouds
Few Clouds
 Viento del NNE
Viento: NNE 9 km/h
Temperatura: 17°C
Rocío: 14°C
Humedad: 83%
Barómetro: 1011 hPa
Nubosidad: Few Clouds
Visibilidad: 10 km
Cloud details: Few Clouds 914 m
2017/10/19 21:30 LERS 192130Z 02005KT 340V060 9999 FEW030 17/14 Q1011
LERT - Rota
Actualización: 19/10/2017 23:00
Few Clouds
Few Clouds
 Viento del O
Viento: O 20 km/h
Temperatura: 21°C
Rocío: 18°C
Humedad: 83%
Barómetro: 1019 hPa
Nubosidad: Few Clouds
Visibilidad: 10 km
Cloud details: Few Clouds 1768 m
2017/10/19 21:00 LERT 192100Z 26011KT 9999 FEW058 21/18 Q1019 NOSIG
LELL - Sabadell
Actualización: 19/10/2017 23:30
Mostly Cloudy
Mostly Cloudy
 Viento del varies
Viento: varies 2 km/h
Temperatura: 17°C
Rocío: 16°C
Humedad: 94%
Barómetro: 1011 hPa
Nubosidad: Mostly Cloudy
Visibilidad: 10 km
Cloud details: Partly Cloudy 701 m
Mostly Cloudy 853 m
Mostly Cloudy 1067 m
2017/10/19 21:30 LELL 192130Z AUTO VRB01KT 9999 SCT023/// BKN028/// BKN035/// 17/16 Q1011
 
LESA - Salamanca
Actualización: 19/10/2017 23:30
Mostly Cloudy
Mostly Cloudy
 Viento del SSO
Viento: SSO 9 km/h
Temperatura: 12°C
Rocío: 9°C
Humedad: 82%
Barómetro: 1018 hPa
Nubosidad: Mostly Cloudy
Visibilidad: 10 km
Cloud details: Mostly Cloudy 701 m
2017/10/19 21:30 LESA 192130Z 20005KT 9999 BKN023 12/09 Q1018
LESO - San Sebastián
Actualización: 19/10/2017 23:30
Despejado
Despejado
 Viento del calm
Viento: Calma
Temperatura: 15°C
Rocío: 14°C
Humedad: 94%
Barómetro: 1013 hPa
Nubosidad: Despejado
Visibilidad: 10 km
2017/10/19 21:30 LESO 192130Z AUTO 00000KT 9999 NCD 15/14 Q1013
LEXJ - Santander
Actualización: 19/10/2017 23:30
Mostly Cloudy
Mostly Cloudy
 Viento del varies
Viento: varies 4 km/h
Temperatura: 18°C
Rocío: 12°C
Humedad: 68%
Barómetro: 1013 hPa
Nubosidad: Mostly Cloudy
Visibilidad: 7 km
Cloud details: Mostly Cloudy 1463 m
Mostly Cloudy 1707 m
Mostly Cloudy 1981 m
2017/10/19 21:30 LEXJ 192130Z AUTO VRB02KT 7000 BKN048 BKN056 BKN065 18/12 Q1013
 
LEPA - Palma de Mallorca
Actualización: 19/10/2017 23:30
Few Clouds
Few Clouds
 Viento del varies
Viento: varies 2 km/h
Temperatura: 12°C
Rocío: 12°C
Humedad: 100%
Barómetro: 1012 hPa
Nubosidad: Few Clouds
Visibilidad: 10 km
Cloud details: Few Clouds 671 m
2017/10/19 21:30 LEPA 192130Z VRB01KT 9999 FEW022 12/12 Q1012 NOSIG
LEPP - Pamplona
Actualización: 19/10/2017 23:30
Few Clouds
Few Clouds
 Viento del calm
Viento: Calma
Temperatura: 11°C
Rocío: 9°C
Humedad: 88%
Barómetro: 1015 hPa
Nubosidad: Few Clouds
Visibilidad: 10 km
Cloud details: Few Clouds 914 m
2017/10/19 21:30 LEPP 192130Z 00000KT 9999 FEW030 11/09 Q1015
LEST - Santiago de Compostela
Actualización: 19/10/2017 23:30
Patches of fog, Muy nuboso
Patches of fog, Muy nuboso
 Viento del varies
Viento: varies 4 km/h
Temperatura: 15°C
Rocío: 15°C
Humedad: 100%
Barómetro: 1015 hPa
Resumen: Patches of Fog
Nubosidad: Mostly Cloudy
Visibilidad: 8 km
Cloud details: Partly Cloudy 61 m
Mostly Cloudy 244 m
2017/10/19 21:30 LEST 192130Z VRB02KT 8000 BCFG SCT002 BKN008 15/15 Q1015 TEMPO 3000 BCFG
 
LEZL - Sevilla
Actualización: 19/10/2017 23:30
Despejado
Despejado
 Viento del O
Viento: O 7 km/h
Temperatura: 19°C
Rocío: 15°C
Humedad: 78%
Barómetro: 1018 hPa
Resumen: Despejado
Visibilidad: greater than 10 km
2017/10/19 21:30 LEZL 192130Z 28004KT CAVOK 19/15 Q1018 NOSIG
GCXO - Tenerife
Actualización: 19/10/2017 23:30
Patches of fog, Muy nuboso
Patches of fog, Muy nuboso
 Viento del NO
Viento: NO 19 km/h
Temperatura: 18°C
Rocío: 17°C
Humedad: 94%
Barómetro: 1024 hPa
Resumen: Patches of Fog
Nubosidad: Mostly Cloudy
Visibilidad: 10 km
Cloud details: Few Clouds 0 m
Partly Cloudy 244 m
Mostly Cloudy 610 m
2017/10/19 21:30 GCXO 192130Z 31010KT 9999 BCFG FEW000 SCT008 BKN020 18/17 Q1024 NOSIG
GCTS - Tenerife-Sur
Actualización: 19/10/2017 23:30
Few Clouds
Few Clouds
 Viento del ENE
Viento: ENE 11 km/h
Temperatura: 23°C
Rocío: 18°C
Humedad: 74%
Barómetro: 1021 hPa
Nubosidad: Few Clouds
Visibilidad: 10 km
Cloud details: Few Clouds 914 m
2017/10/19 21:30 GCTS 192130Z 06006KT 9999 FEW030 23/18 Q1021 NOSIG
 
LEVC - Valencia
Actualización: 19/10/2017 23:30
Few Clouds
Few Clouds
 Viento del O
Viento: O 7 km/h
Temperatura: 16°C
Rocío: 10°C
Humedad: 68%
Barómetro: 1012 hPa
Nubosidad: Few Clouds
Visibilidad: 10 km
Cloud details: Few Clouds 762 m
2017/10/19 21:30 LEVC 192130Z 28004KT 9999 FEW025 16/10 Q1012 NOSIG
LEVD - Valladolid
Actualización: 19/10/2017 21:30
NO Actualizado
Partly Cloudy
Partly Cloudy
 Viento del O
Viento: O 22 km/h
Temperatura: 12°C
Rocío: 7°C
Humedad: 72%
Barómetro: 1016 hPa
Nubosidad: Partly Cloudy
Visibilidad: 10 km
Cloud details: Few Clouds 488 m
Partly Cloudy 914 m
2017/10/19 19:30 LEVD 191930Z 26012KT 9999 FEW016 SCT030 12/07 Q1016
LEVX - Vigo
Actualización: 19/10/2017 23:30
Niebla, Muy nuboso
Niebla, Muy nuboso
 Viento del S
Viento: S 6 km/h
Temperatura: 15°C
Rocío: 15°C
Humedad: 100%
Barómetro: 1015 hPa
Resumen: Niebla
Nubosidad: Mostly Cloudy
Visibilidad: 0 km
Cloud details: Mostly Cloudy 30 m
Mostly Cloudy 122 m
2017/10/19 21:30 LEVX 192130Z 19003KT 150V240 0100 R19/0300N R01/0250N FG BKN001 BKN004 15/15 Q1015 NOSIG
 
LEVT - Vitoria
Actualización: 19/10/2017 23:30
Mostly Cloudy
Mostly Cloudy
 Viento del varies
Viento: varies 4 km/h
Temperatura: 10°C
Rocío: 9°C
Humedad: 94%
Barómetro: 1015 hPa
Nubosidad: Mostly Cloudy
Visibilidad: 10 km
Cloud details: Mostly Cloudy 1829 m
2017/10/19 21:30 LEVT 192130Z VRB02KT 9999 BKN060 10/09 Q1015
LEZG - Zaragoza
Actualización: 19/10/2017 23:30
Despejado
Despejado
 Viento del OSO
Viento: OSO 15 km/h
Temperatura: 15°C
Rocío: 10°C
Humedad: 72%
Barómetro: 1014 hPa
Resumen: Despejado
Visibilidad: greater than 10 km
2017/10/19 21:30 LEZG 192130Z 25008KT CAVOK 15/10 Q1014

La estación de MeteoMurcia.com, publica sus datos en los siguientes proyectos:

Meteoclimatic www.awekas.at

W3Counter
Web Analytics